createdAt,value
2019-03-17T00:00:12.773Z,6.90
2019-03-17T00:02:41.328Z,6.90
2019-03-17T00:05:10.085Z,7.00
2019-03-17T00:07:38.591Z,7.00
2019-03-17T00:10:07.294Z,6.90
2019-03-17T00:12:35.845Z,7.00
2019-03-17T00:15:06.398Z,7.00
2019-03-17T00:17:35.119Z,6.90
2019-03-17T00:20:04.570Z,6.90
2019-03-17T00:22:33.112Z,6.90
2019-03-17T00:25:09.131Z,6.90
2019-03-17T00:27:31.906Z,7.00
2019-03-17T00:30:00.526Z,7.00
2019-03-17T00:32:29.041Z,6.90
2019-03-17T00:34:57.612Z,6.80
2019-03-17T00:37:26.220Z,6.80
2019-03-17T00:39:54.734Z,6.80
2019-03-17T00:42:23.284Z,6.70
2019-03-17T00:44:51.862Z,6.70
2019-03-17T00:47:20.415Z,6.70
2019-03-17T00:49:48.985Z,6.70
2019-03-17T00:52:17.543Z,6.60
2019-03-17T00:54:46.117Z,6.50
2019-03-17T00:57:14.678Z,6.50
2019-03-17T00:59:43.257Z,6.50
2019-03-17T01:02:11.802Z,6.50
2019-03-17T01:04:40.377Z,6.50
2019-03-17T01:07:08.924Z,6.60
2019-03-17T01:09:37.497Z,6.60
2019-03-17T01:12:06.050Z,6.60
2019-03-17T01:14:34.622Z,6.70
2019-03-17T01:17:03.173Z,6.60
2019-03-17T01:19:31.745Z,6.60
2019-03-17T01:22:00.298Z,6.50
2019-03-17T01:24:28.869Z,6.40
2019-03-17T01:26:57.417Z,6.30
2019-03-17T01:29:25.990Z,6.20
2019-03-17T01:31:54.542Z,6.20
2019-03-17T01:34:23.117Z,6.20
2019-03-17T01:36:51.671Z,6.20
2019-03-17T01:39:20.240Z,6.10
2019-03-17T01:41:48.799Z,6.00
2019-03-17T01:44:17.369Z,6.00
2019-03-17T01:46:45.914Z,5.90
2019-03-17T01:49:14.490Z,5.80
2019-03-17T01:51:43.039Z,5.70
2019-03-17T01:54:11.617Z,5.60
2019-03-17T01:56:40.170Z,5.50
2019-03-17T01:59:08.741Z,5.40
2019-03-17T02:01:37.289Z,5.30
2019-03-17T02:04:05.864Z,5.30
2019-03-17T02:06:34.418Z,5.40
2019-03-17T02:09:04.062Z,5.40
2019-03-17T02:11:32.612Z,5.40
2019-03-17T02:14:01.190Z,5.40
2019-03-17T02:16:29.767Z,5.40
2019-03-17T02:18:58.331Z,5.60
2019-03-17T02:21:26.874Z,5.80
2019-03-17T02:23:55.425Z,5.90
2019-03-17T02:26:23.993Z,5.90
2019-03-17T02:28:52.546Z,6.10
2019-03-17T02:31:21.122Z,6.00
2019-03-17T02:33:49.678Z,6.00
2019-03-17T02:36:18.255Z,6.10
2019-03-17T02:38:46.803Z,6.00
2019-03-17T02:41:15.385Z,6.00
2019-03-17T02:43:43.936Z,6.10
2019-03-17T02:46:12.501Z,6.10
2019-03-17T02:48:41.049Z,6.10
2019-03-17T02:51:09.625Z,6.10
2019-03-17T02:53:38.170Z,6.20
2019-03-17T02:56:06.745Z,6.30
2019-03-17T02:58:35.298Z,6.30
2019-03-17T03:01:03.941Z,6.30
2019-03-17T03:03:32.489Z,6.40
2019-03-17T03:06:01.069Z,6.50
2019-03-17T03:08:29.627Z,6.50
2019-03-17T03:10:58.198Z,6.50
2019-03-17T03:13:26.756Z,6.70
2019-03-17T03:15:55.337Z,6.80
2019-03-17T03:18:23.894Z,6.70
2019-03-17T03:20:52.518Z,6.80
2019-03-17T03:23:21.075Z,6.80
2019-03-17T03:25:49.654Z,6.90
2019-03-17T03:28:18.218Z,6.90
2019-03-17T03:30:46.793Z,7.00
2019-03-17T03:33:15.347Z,7.00
2019-03-17T03:35:43.923Z,7.00
2019-03-17T03:38:12.478Z,7.00
2019-03-17T03:40:41.050Z,7.10
2019-03-17T03:43:09.603Z,7.00
2019-03-17T03:45:38.174Z,7.10
2019-03-17T03:48:06.726Z,7.10
2019-03-17T03:50:35.308Z,7.10
2019-03-17T03:53:03.854Z,7.00
2019-03-17T03:55:32.426Z,7.00
2019-03-17T03:58:00.976Z,7.20
2019-03-17T04:00:29.547Z,7.20
2019-03-17T04:02:58.119Z,7.20
2019-03-17T04:05:26.666Z,7.10
2019-03-17T04:07:55.226Z,7.20
2019-03-17T04:10:23.806Z,7.40
2019-03-17T04:12:52.361Z,7.30
2019-03-17T04:15:20.942Z,7.40
2019-03-17T04:17:49.492Z,7.40
2019-03-17T04:20:18.058Z,7.40
2019-03-17T04:22:46.608Z,7.50
2019-03-17T04:25:16.959Z,7.40
2019-03-17T04:27:45.577Z,7.40
2019-03-17T04:30:14.386Z,7.30
2019-03-17T04:32:42.933Z,7.30
2019-03-17T04:35:11.573Z,7.30
2019-03-17T04:37:40.147Z,7.40
2019-03-17T04:40:09.641Z,7.40
2019-03-17T04:42:38.201Z,7.50
2019-03-17T04:45:07.810Z,7.50
2019-03-17T04:47:36.365Z,7.70
2019-03-17T04:50:06.046Z,7.60
2019-03-17T04:52:34.626Z,7.60
2019-03-17T04:55:03.241Z,7.80
2019-03-17T04:57:31.817Z,7.90
2019-03-17T05:00:00.471Z,7.90
2019-03-17T05:02:29.050Z,7.80
2019-03-17T05:04:57.601Z,7.80
2019-03-17T05:07:26.173Z,7.80
2019-03-17T05:09:54.728Z,7.90
2019-03-17T05:12:23.301Z,7.90
2019-03-17T05:14:51.858Z,7.90
2019-03-17T05:17:20.435Z,7.80
2019-03-17T05:19:48.987Z,7.70
2019-03-17T05:22:17.562Z,7.70
2019-03-17T05:24:46.109Z,7.70
2019-03-17T05:27:14.687Z,7.70
2019-03-17T05:29:43.237Z,7.80
2019-03-17T05:32:11.814Z,8.00
2019-03-17T05:34:40.366Z,7.90
2019-03-17T05:37:08.965Z,7.80
2019-03-17T05:39:37.486Z,7.80
2019-03-17T05:42:06.058Z,7.80
2019-03-17T05:44:34.609Z,7.90
2019-03-17T05:47:03.185Z,8.00
2019-03-17T05:49:31.737Z,8.10
2019-03-17T05:52:00.308Z,8.00
2019-03-17T05:54:28.867Z,8.10
2019-03-17T05:56:57.440Z,8.00
2019-03-17T05:59:25.995Z,8.00
2019-03-17T06:01:54.566Z,8.00
2019-03-17T06:04:23.610Z,8.00
2019-03-17T06:06:52.624Z,7.90
2019-03-17T06:09:21.614Z,8.00
2019-03-17T06:11:50.162Z,8.10
2019-03-17T06:14:18.822Z,8.10
2019-03-17T06:16:47.388Z,8.20
2019-03-17T06:19:15.936Z,8.20
2019-03-17T06:21:44.528Z,8.30
2019-03-17T06:24:13.449Z,8.40
2019-03-17T06:26:41.992Z,8.40
2019-03-17T06:29:10.578Z,8.50
2019-03-17T06:31:40.918Z,8.50
2019-03-17T06:34:09.451Z,8.70
2019-03-17T06:36:38.027Z,8.80
2019-03-17T06:39:07.329Z,8.80
2019-03-17T06:41:35.893Z,8.70
2019-03-17T06:44:04.580Z,8.80
2019-03-17T06:46:33.152Z,9.00
2019-03-17T06:49:01.711Z,9.00
2019-03-17T06:51:30.281Z,9.00
2019-03-17T06:53:58.851Z,9.00
2019-03-17T06:56:27.428Z,9.10
2019-03-17T06:58:55.972Z,9.20
2019-03-17T07:01:24.549Z,9.30
2019-03-17T07:03:53.106Z,9.40
2019-03-17T07:06:21.673Z,9.30
2019-03-17T07:08:50.231Z,9.30
2019-03-17T07:11:18.794Z,9.30
2019-03-17T07:13:47.346Z,9.60
2019-03-17T07:16:15.917Z,9.60
2019-03-17T07:18:44.476Z,9.70
2019-03-17T07:21:13.020Z,9.70
2019-03-17T07:23:41.594Z,9.80
2019-03-17T07:26:10.150Z,9.90
2019-03-17T07:28:38.730Z,10.00
2019-03-17T07:31:07.283Z,9.90
2019-03-17T07:33:35.856Z,10.00
2019-03-17T07:36:04.409Z,9.90
2019-03-17T07:38:32.980Z,9.90
2019-03-17T07:41:01.532Z,9.90
2019-03-17T07:43:30.114Z,10.00
2019-03-17T07:45:58.674Z,10.00
2019-03-17T07:48:27.253Z,10.10
2019-03-17T07:50:55.804Z,10.10
2019-03-17T07:53:24.409Z,10.20
2019-03-17T07:55:55.248Z,10.30
2019-03-17T07:58:23.951Z,10.10
2019-03-17T08:00:52.493Z,10.20
2019-03-17T08:03:21.076Z,10.40
2019-03-17T08:05:49.630Z,10.40
2019-03-17T08:08:18.209Z,10.40
2019-03-17T08:10:46.761Z,10.40
2019-03-17T08:13:15.336Z,10.40
2019-03-17T08:15:43.898Z,10.70
2019-03-17T08:18:12.476Z,10.60
2019-03-17T08:20:41.040Z,10.60
2019-03-17T08:23:09.610Z,10.50
2019-03-17T08:25:38.171Z,10.50
2019-03-17T08:28:06.750Z,10.70
2019-03-17T08:30:35.487Z,10.70
2019-03-17T08:33:04.062Z,10.90
2019-03-17T08:35:32.618Z,10.90
2019-03-17T08:38:01.201Z,10.70
2019-03-17T08:40:29.765Z,10.70
2019-03-17T08:42:58.339Z,11.00
2019-03-17T08:45:26.897Z,11.00
2019-03-17T08:47:58.325Z,11.20
2019-03-17T08:50:25.685Z,11.20
2019-03-17T08:52:54.263Z,11.30
2019-03-17T08:55:22.935Z,11.40
2019-03-17T08:57:51.518Z,11.50
2019-03-17T09:00:21.010Z,11.50
2019-03-17T09:02:49.587Z,11.50
2019-03-17T09:05:18.154Z,11.10
2019-03-17T09:07:46.725Z,11.30
2019-03-17T09:10:16.067Z,11.30
2019-03-17T09:12:44.625Z,11.00
2019-03-17T09:15:13.249Z,10.90
2019-03-17T09:17:41.829Z,11.10
2019-03-17T09:20:16.523Z,11.50
2019-03-17T09:22:45.101Z,11.50
2019-03-17T09:25:13.681Z,11.30
2019-03-17T09:27:42.246Z,11.50
2019-03-17T09:30:13.846Z,11.40
2019-03-17T09:32:42.420Z,11.10
2019-03-17T09:35:10.987Z,11.20
2019-03-17T09:37:39.572Z,11.80
2019-03-17T09:40:15.429Z,11.80
2019-03-17T09:42:44.024Z,11.50
2019-03-17T09:45:13.814Z,11.60
2019-03-17T09:47:42.558Z,11.80
2019-03-17T09:50:21.626Z,11.40
2019-03-17T09:52:50.197Z,11.50
2019-03-17T09:55:18.770Z,11.70
2019-03-17T09:57:47.341Z,11.80
2019-03-17T10:00:21.286Z,11.80
2019-03-17T10:02:49.857Z,11.30
2019-03-17T10:05:18.412Z,11.50
2019-03-17T10:07:47.060Z,11.40
2019-03-17T10:10:23.195Z,11.80
2019-03-17T10:12:51.774Z,12.20
2019-03-17T10:15:20.770Z,12.00
2019-03-17T10:17:49.344Z,11.70
2019-03-17T10:20:18.841Z,11.70
2019-03-17T10:22:47.423Z,11.60
2019-03-17T10:25:15.998Z,11.30
2019-03-17T10:27:44.542Z,11.30
2019-03-17T10:30:15.525Z,11.20
2019-03-17T10:32:44.078Z,11.10
2019-03-17T10:35:12.732Z,10.80
2019-03-17T10:37:41.281Z,10.70
2019-03-17T10:40:14.937Z,11.30
2019-03-17T10:42:43.565Z,11.40
2019-03-17T10:45:12.987Z,11.30
2019-03-17T10:47:41.619Z,11.80
2019-03-17T10:50:15.248Z,11.50
2019-03-17T10:52:43.870Z,11.50
2019-03-17T10:55:12.886Z,11.70
2019-03-17T10:57:41.449Z,11.50
2019-03-17T11:00:15.899Z,11.70
2019-03-17T11:02:44.453Z,12.30
2019-03-17T11:05:13.101Z,12.10
2019-03-17T11:07:41.657Z,12.30
2019-03-17T11:10:13.985Z,12.60
2019-03-17T11:12:42.541Z,12.80
2019-03-17T11:15:19.344Z,12.80
2019-03-17T11:17:47.851Z,13.10
2019-03-17T11:20:18.038Z,13.00
2019-03-17T11:22:47.042Z,12.40
2019-03-17T11:25:17.649Z,12.10
2019-03-17T11:27:46.223Z,11.70
2019-03-17T11:30:19.402Z,11.70
2019-03-17T11:32:48.158Z,11.60
2019-03-17T11:35:16.730Z,11.70
2019-03-17T11:37:45.348Z,12.10
2019-03-17T11:40:15.746Z,12.30
2019-03-17T11:42:44.386Z,12.40
2019-03-17T11:45:16.838Z,12.40
2019-03-17T11:47:45.425Z,12.60
2019-03-17T11:50:20.395Z,13.00
2019-03-17T11:52:49.407Z,13.10
2019-03-17T11:55:18.130Z,12.80
2019-03-17T11:57:47.033Z,12.60
2019-03-17T12:00:19.551Z,12.50
2019-03-17T12:02:48.119Z,12.40
2019-03-17T12:05:16.707Z,12.90
2019-03-17T12:07:45.264Z,13.30
2019-03-17T12:10:15.597Z,13.00
2019-03-17T12:12:44.229Z,13.10
2019-03-17T12:15:17.921Z,12.90
2019-03-17T12:17:46.489Z,12.70
2019-03-17T12:20:15.609Z,12.70
2019-03-17T12:22:44.169Z,11.80
2019-03-17T12:25:14.803Z,12.00
2019-03-17T12:27:43.352Z,11.60
2019-03-17T12:30:25.607Z,12.20
2019-03-17T12:32:54.916Z,12.60
2019-03-17T12:35:23.585Z,12.50
2019-03-17T12:37:52.213Z,12.50
2019-03-17T12:40:20.792Z,12.70
2019-03-17T12:42:49.356Z,12.90
2019-03-17T12:45:18.010Z,12.70
2019-03-17T12:47:47.504Z,12.40
2019-03-17T12:50:18.166Z,12.30
2019-03-17T12:52:46.720Z,12.30
2019-03-17T12:55:15.566Z,12.40
2019-03-17T12:57:44.077Z,12.30
2019-03-17T13:00:18.283Z,12.20
2019-03-17T13:02:46.880Z,12.40
2019-03-17T13:05:15.430Z,12.30
2019-03-17T13:07:43.995Z,12.50
2019-03-17T13:10:16.243Z,12.30
2019-03-17T13:12:44.934Z,12.50
2019-03-17T13:15:16.192Z,12.20
2019-03-17T13:17:44.945Z,12.30
2019-03-17T13:20:15.649Z,12.20
2019-03-17T13:22:44.205Z,12.20
2019-03-17T13:25:13.031Z,12.20
2019-03-17T13:27:41.593Z,12.00
2019-03-17T13:30:19.461Z,11.70
2019-03-17T13:32:48.033Z,11.70
2019-03-17T13:35:16.632Z,11.70
2019-03-17T13:37:45.195Z,11.70
2019-03-17T13:40:28.300Z,12.20
2019-03-17T13:42:47.838Z,12.70
2019-03-17T13:45:16.464Z,13.00
2019-03-17T13:47:45.108Z,13.00
2019-03-17T13:50:18.296Z,13.30
2019-03-17T13:52:46.872Z,13.40
2019-03-17T13:55:15.530Z,13.60
2019-03-17T13:58:06.793Z,13.60
2019-03-17T14:00:35.442Z,13.50
2019-03-17T14:03:04.074Z,13.50
2019-03-17T14:05:32.657Z,13.30
2019-03-17T14:08:01.262Z,13.20
2019-03-17T14:10:40.418Z,13.20
2019-03-17T14:13:00.027Z,13.10
2019-03-17T14:15:28.621Z,13.10
2019-03-17T14:17:57.184Z,13.20
2019-03-17T14:20:25.773Z,13.20
2019-03-17T14:22:54.337Z,13.30
2019-03-17T14:25:34.046Z,13.20
2019-03-17T14:28:02.616Z,13.10
2019-03-17T14:30:31.368Z,13.00
2019-03-17T14:32:59.945Z,12.90
2019-03-17T14:35:28.529Z,12.70
2019-03-17T14:37:57.094Z,12.60
2019-03-17T14:40:25.674Z,12.40
2019-03-17T14:42:55.663Z,12.30
2019-03-17T14:45:24.421Z,12.10
2019-03-17T14:47:52.976Z,11.90
2019-03-17T14:50:25.080Z,11.80
2019-03-17T14:52:53.642Z,11.70
2019-03-17T14:55:22.319Z,11.60
2019-03-17T14:57:50.881Z,11.40
2019-03-17T15:00:21.469Z,11.10
2019-03-17T15:02:50.037Z,11.00
2019-03-17T15:05:18.895Z,10.80
2019-03-17T15:07:47.437Z,9.30
2019-03-17T15:10:19.094Z,8.20
2019-03-17T15:12:47.706Z,7.50
2019-03-17T15:15:18.380Z,7.00
2019-03-17T15:17:47.073Z,6.70
2019-03-17T15:20:18.058Z,6.50
2019-03-17T15:22:47.165Z,6.30
2019-03-17T15:25:15.838Z,6.10
2019-03-17T15:27:44.388Z,6.10
2019-03-17T15:30:18.789Z,6.00
2019-03-17T15:32:47.354Z,5.90
2019-03-17T15:35:15.921Z,5.90
2019-03-17T15:37:44.538Z,5.80
2019-03-17T15:40:21.048Z,5.70
2019-03-17T15:42:49.598Z,5.60
2019-03-17T15:45:20.276Z,5.60
2019-03-17T15:47:48.896Z,5.50
2019-03-17T15:50:19.105Z,5.50
2019-03-17T15:52:47.672Z,5.40
2019-03-17T15:55:17.074Z,5.40
2019-03-17T15:57:46.133Z,5.40
2019-03-17T16:00:24.782Z,5.40
2019-03-17T16:02:49.517Z,5.50
2019-03-17T16:05:18.520Z,5.50
2019-03-17T16:07:47.726Z,5.60
2019-03-17T16:10:23.897Z,5.60
2019-03-17T16:12:52.471Z,5.60
2019-03-17T16:15:21.160Z,5.60
2019-03-17T16:17:49.730Z,5.70
2019-03-17T16:20:25.025Z,5.70
2019-03-17T16:22:53.592Z,5.70
2019-03-17T16:25:25.222Z,5.80
2019-03-17T16:27:53.800Z,5.80
2019-03-17T16:30:26.642Z,5.80
2019-03-17T16:32:55.152Z,5.90
2019-03-17T16:35:23.694Z,5.90
2019-03-17T16:37:52.541Z,5.90
2019-03-17T16:40:25.889Z,6.00
2019-03-17T16:42:54.466Z,6.10
2019-03-17T16:45:23.169Z,5.90
2019-03-17T16:47:51.839Z,5.90
2019-03-17T16:50:21.639Z,5.80
2019-03-17T16:52:50.242Z,5.80
2019-03-17T16:55:18.828Z,5.70
2019-03-17T16:57:47.574Z,5.80
2019-03-17T17:00:21.046Z,5.80
2019-03-17T17:02:50.166Z,5.80
2019-03-17T17:05:19.663Z,5.80
2019-03-17T17:07:48.232Z,5.80
2019-03-17T17:10:22.720Z,5.90
2019-03-17T17:12:51.302Z,5.90
2019-03-17T17:15:31.193Z,5.90
2019-03-17T17:17:59.782Z,5.80
2019-03-17T17:20:30.176Z,5.70
2019-03-17T17:22:58.741Z,5.60
2019-03-17T17:25:27.294Z,5.60
2019-03-17T17:27:55.936Z,5.60
2019-03-17T17:30:24.480Z,5.60
2019-03-17T17:32:53.123Z,5.60
2019-03-17T17:35:21.673Z,5.50
2019-03-17T17:37:50.252Z,5.50
2019-03-17T17:40:28.121Z,5.50
2019-03-17T17:42:56.781Z,5.50
2019-03-17T17:45:28.225Z,5.60
2019-03-17T17:47:56.797Z,5.70
2019-03-17T17:50:30.312Z,5.60
2019-03-17T17:52:58.953Z,5.60
2019-03-17T17:55:27.579Z,5.60
2019-03-17T17:57:56.437Z,5.60
2019-03-17T18:00:45.278Z,5.60
2019-03-17T18:03:13.846Z,5.60
2019-03-17T18:05:42.393Z,5.70
2019-03-17T18:08:10.966Z,5.60
2019-03-17T18:10:39.521Z,5.60
2019-03-17T18:13:08.197Z,5.70
2019-03-17T18:15:36.727Z,5.70
2019-03-17T18:18:05.298Z,5.70
2019-03-17T18:20:33.844Z,5.70
2019-03-17T18:23:02.417Z,5.70
2019-03-17T18:25:30.961Z,5.80
2019-03-17T18:27:59.538Z,5.70
2019-03-17T18:30:28.097Z,5.80
2019-03-17T18:32:56.678Z,5.70
2019-03-17T18:35:25.237Z,5.70
2019-03-17T18:37:53.835Z,5.70
2019-03-17T18:40:22.729Z,5.70
2019-03-17T18:42:51.300Z,5.60
2019-03-17T18:45:27.440Z,5.70
2019-03-17T18:47:57.563Z,5.60
2019-03-17T18:50:26.284Z,5.70
2019-03-17T18:52:54.853Z,5.60
2019-03-17T18:55:23.424Z,5.50
2019-03-17T18:57:52.837Z,5.50
2019-03-17T19:00:26.090Z,5.50
2019-03-17T19:02:54.660Z,5.50
2019-03-17T19:05:23.217Z,5.50
2019-03-17T19:07:51.792Z,5.50
2019-03-17T19:10:20.988Z,5.60
2019-03-17T19:12:49.640Z,5.60
2019-03-17T19:15:22.083Z,5.50
2019-03-17T19:17:50.660Z,5.50
2019-03-17T19:20:20.245Z,5.50
2019-03-17T19:22:48.822Z,5.50
2019-03-17T19:25:18.827Z,5.40
2019-03-17T19:27:47.394Z,5.40
2019-03-17T19:30:22.662Z,5.50
2019-03-17T19:32:51.285Z,5.50
2019-03-17T19:35:19.901Z,5.50
2019-03-17T19:37:48.512Z,5.60
2019-03-17T19:40:23.882Z,5.50
2019-03-17T19:43:00.014Z,5.50
2019-03-17T19:45:22.658Z,5.40
2019-03-17T19:47:51.240Z,5.40
2019-03-17T19:50:21.022Z,5.40
2019-03-17T19:52:49.602Z,5.40
2019-03-17T19:55:18.158Z,5.40
2019-03-17T19:57:46.725Z,5.30
2019-03-17T20:00:22.129Z,5.30
2019-03-17T20:02:50.709Z,5.30
2019-03-17T20:05:19.262Z,5.30
2019-03-17T20:07:47.837Z,5.30
2019-03-17T20:10:24.926Z,5.20
2019-03-17T20:12:53.498Z,5.20
2019-03-17T20:15:22.119Z,5.20
2019-03-17T20:17:50.885Z,5.20
2019-03-17T20:20:19.429Z,5.10
2019-03-17T20:22:48.010Z,5.10
2019-03-17T20:25:16.566Z,5.20
2019-03-17T20:27:45.144Z,5.30
2019-03-17T20:30:15.898Z,5.40
2019-03-17T20:32:44.473Z,5.30
2019-03-17T20:35:13.860Z,5.30
2019-03-17T20:37:44.990Z,5.30
2019-03-17T20:40:15.959Z,5.20
2019-03-17T20:42:44.634Z,5.20
2019-03-17T20:45:14.662Z,5.20
2019-03-17T20:47:43.274Z,5.20
2019-03-17T20:50:14.153Z,5.40
2019-03-17T20:52:42.777Z,5.30
2019-03-17T20:55:11.903Z,5.40
2019-03-17T20:57:40.455Z,5.30
2019-03-17T21:00:15.641Z,5.20
2019-03-17T21:02:44.198Z,5.30
2019-03-17T21:05:13.109Z,5.10
2019-03-17T21:07:42.103Z,5.10
2019-03-17T21:10:17.325Z,5.10
2019-03-17T21:12:45.932Z,5.10
2019-03-17T21:15:16.716Z,5.10
2019-03-17T21:17:45.265Z,5.20
2019-03-17T21:20:22.089Z,5.10
2019-03-17T21:22:50.642Z,5.10
2019-03-17T21:25:19.311Z,5.00
2019-03-17T21:27:47.853Z,5.00
2019-03-17T21:30:24.517Z,5.10
2019-03-17T21:32:53.070Z,5.20
2019-03-17T21:35:21.649Z,5.20
2019-03-17T21:37:50.300Z,5.20
2019-03-17T21:40:18.866Z,5.30
2019-03-17T21:42:47.415Z,5.30
2019-03-17T21:45:16.125Z,5.20
2019-03-17T21:47:44.677Z,5.20
2019-03-17T21:50:20.597Z,5.20
2019-03-17T21:52:49.223Z,5.20
2019-03-17T21:55:17.870Z,5.20
2019-03-17T21:57:46.496Z,5.20
2019-03-17T22:00:19.180Z,5.30
2019-03-17T22:02:47.808Z,5.30
2019-03-17T22:05:16.523Z,5.20
2019-03-17T22:07:50.346Z,5.20
2019-03-17T22:10:22.701Z,5.20
2019-03-17T22:12:51.249Z,5.20
2019-03-17T22:15:19.878Z,5.30
2019-03-17T22:17:48.438Z,5.20
2019-03-17T22:20:17.358Z,5.30
2019-03-17T22:22:45.977Z,5.30
2019-03-17T22:25:15.290Z,5.30
2019-03-17T22:27:43.841Z,5.20
2019-03-17T22:30:17.361Z,5.20
2019-03-17T22:32:46.047Z,5.10
2019-03-17T22:35:14.613Z,5.10
2019-03-17T22:37:43.173Z,5.30
2019-03-17T22:40:16.688Z,5.20
2019-03-17T22:42:45.251Z,5.20
2019-03-17T22:45:14.766Z,5.30
2019-03-17T22:47:43.318Z,5.20
2019-03-17T22:50:16.668Z,5.10
2019-03-17T22:52:45.218Z,5.20
2019-03-17T22:55:13.856Z,5.10
2019-03-17T22:57:42.493Z,5.10
2019-03-17T23:00:24.605Z,5.10
2019-03-17T23:02:53.218Z,5.00
2019-03-17T23:05:21.800Z,5.10
2019-03-17T23:07:53.826Z,5.10
2019-03-17T23:10:22.406Z,5.10
2019-03-17T23:12:50.970Z,5.30
2019-03-17T23:15:19.533Z,5.30
2019-03-17T23:17:48.134Z,5.10
2019-03-17T23:20:17.306Z,4.90
2019-03-17T23:22:45.861Z,4.80
2019-03-17T23:25:14.497Z,4.80
2019-03-17T23:27:43.049Z,4.70
2019-03-17T23:30:23.682Z,4.70
2019-03-17T23:32:52.241Z,4.70
2019-03-17T23:35:20.805Z,4.70
2019-03-17T23:37:49.357Z,4.80
2019-03-17T23:40:18.370Z,4.80
2019-03-17T23:42:46.926Z,4.80
2019-03-17T23:45:15.570Z,4.90
2019-03-17T23:47:44.128Z,4.90
2019-03-17T23:50:13.856Z,5.00
2019-03-17T23:52:42.661Z,5.00
2019-03-17T23:55:12.682Z,4.90
2019-03-17T23:57:41.317Z,5.00
